Jinjya Maru — JI3550 — position and weather

sailwx.info

Track history (hours):
 
Tides and Currents Weather Stations Pressure Air Temp Water Temp Dewpoint Dewpoint Depression Visibility Wind Speed Wind Dir Waves Ship Positions

Jinjya Maru

Last reported at 2017-Nov-20 00:29 UTC. Time now 2017-Nov-21 04:42 UTC.
Position N 34°36' E 135°25'.

Length 48 m.

Type: Tanker. MMSI: 431300336.

Date/timePositionNaut miles runAvg speedWind from/ knotsBaromVisibWave heightAir tempDewpointWater temp
2017-Nov-20 00:29N 34°36' E 135°25'2 2.6
2017-Nov-19 23:48N 34°34' E 135°26'0 0.0
2017-Nov-19 23:18N 34°34' E 135°26'0 0.0
2017-Nov-19 23:00N 34°34' E 135°26'3 0.5
2017-Nov-19 16:10N 34°34' E 135°21'4 9.8
2017-Nov-19 15:48N 34°32' E 135°18'3 9.5
2017-Nov-19 15:26N 34°31' E 135°14'  
2017-Nov-17 02:41N 34°28' E 135°13'3 9.1
2017-Nov-17 02:21N 34°30' E 135°15'4 9.1
2017-Nov-17 01:57N 34°32' E 135°19'6 3.5
2017-Nov-17 00:13N 34°34' E 135°26'0 0.0
2017-Nov-16 23:01N 34°34' E 135°26'0 0.0
2017-Nov-16 22:55N 34°34' E 135°26'0 1.0
2017-Nov-16 22:29N 34°35' E 135°25'0 0.9
2017-Nov-16 21:58N 34°35' E 135°25'0 0.0
2017-Nov-16 21:16N 34°35' E 135°25'0 0.0
2017-Nov-16 20:46N 34°35' E 135°25'0 0.0
2017-Nov-16 20:28N 34°35' E 135°25'0 0.0
2017-Nov-16 19:46N 34°35' E 135°25'0 0.0
2017-Nov-16 19:22N 34°35' E 135°25'0 0.0
2017-Nov-16 18:58N 34°35' E 135°25'0 0.0
2017-Nov-16 18:28N 34°35' E 135°25'0 0.0
2017-Nov-16 17:56N 34°35' E 135°25'0 0.0
2017-Nov-16 17:26N 34°35' E 135°25'0 0.0
2017-Nov-16 16:56N 34°35' E 135°25'0 0.0
2017-Nov-16 16:26N 34°35' E 135°25'0 0.0
2017-Nov-16 15:56N 34°35' E 135°25'27 8.1
2017-Nov-16 12:33N 34°15' E 135°03'16 0.5
2017-Nov-15 06:49N 34°29' E 135°13'4 8.8
2017-Nov-15 06:24N 34°31' E 135°16'3 8.5
2017-Nov-15 06:00N 34°33' E 135°20'5 1.4
2017-Nov-15 02:14N 34°35' E 135°25'3 9.7
2017-Nov-15 01:57N 34°36' E 135°22'510.6
2017-Nov-15 01:30N 34°36' E 135°17'510.3
2017-Nov-15 00:59N 34°36' E 135°10'  
2017-Nov-12 03:06N 34°36' E 135°03'1 8.5
2017-Nov-12 02:59N 34°36' E 135°04'4 8.7
2017-Nov-12 02:30N 34°36' E 135°10'4 8.8
2017-Nov-12 02:00N 34°37' E 135°15'5 8.8
2017-Nov-12 01:29N 34°37' E 135°20'5 3.8
2017-Nov-12 00:11N 34°34' E 135°26'0 0.0
2017-Nov-11 22:50N 34°34' E 135°26'0 0.6
2017-Nov-11 22:18N 34°35' E 135°25'1 0.7
2017-Nov-11 21:32N 34°35' E 135°25'0 0.0
2017-Nov-11 21:02N 34°35' E 135°25'0 0.0
2017-Nov-11 20:38N 34°35' E 135°25'0 0.0
2017-Nov-11 20:26N 34°35' E 135°25'6 7.5
2017-Nov-11 19:41N 34°33' E 135°19'3 9.6
2017-Nov-11 19:23N 34°31' E 135°16'  
Track history (hours):
 
Tides and Currents Weather Stations Pressure Air Temp Water Temp Dewpoint Dewpoint Depression Visibility Wind Speed Wind Dir Waves Ship Positions

Jinjya Maru

Last reported at 2017-Nov-20 00:29 UTC. Time now 2017-Nov-21 04:42 UTC.
Position N 34°36' E 135°25'.

Length 48 m.

Type: Tanker. MMSI: 431300336.

Date/timePositionNaut miles runAvg speedWind from/ knotsBaromVisibWave heightAir tempDewpointWater temp
2017-Nov-20 00:29N 34°36' E 135°25'2 2.6
2017-Nov-19 23:48N 34°34' E 135°26'0 0.0
2017-Nov-19 23:18N 34°34' E 135°26'0 0.0
2017-Nov-19 23:00N 34°34' E 135°26'3 0.5
2017-Nov-19 16:10N 34°34' E 135°21'4 9.8
2017-Nov-19 15:48N 34°32' E 135°18'3 9.5
2017-Nov-19 15:26N 34°31' E 135°14'  
2017-Nov-17 02:41N 34°28' E 135°13'3 9.1
2017-Nov-17 02:21N 34°30' E 135°15'4 9.1
2017-Nov-17 01:57N 34°32' E 135°19'6 3.5
2017-Nov-17 00:13N 34°34' E 135°26'0 0.0
2017-Nov-16 23:01N 34°34' E 135°26'0 0.0
2017-Nov-16 22:55N 34°34' E 135°26'0 1.0
2017-Nov-16 22:29N 34°35' E 135°25'0 0.9
2017-Nov-16 21:58N 34°35' E 135°25'0 0.0
2017-Nov-16 21:16N 34°35' E 135°25'0 0.0
2017-Nov-16 20:46N 34°35' E 135°25'0 0.0
2017-Nov-16 20:28N 34°35' E 135°25'0 0.0
2017-Nov-16 19:46N 34°35' E 135°25'0 0.0
2017-Nov-16 19:22N 34°35' E 135°25'0 0.0
2017-Nov-16 18:58N 34°35' E 135°25'0 0.0
2017-Nov-16 18:28N 34°35' E 135°25'0 0.0
2017-Nov-16 17:56N 34°35' E 135°25'0 0.0
2017-Nov-16 17:26N 34°35' E 135°25'0 0.0
2017-Nov-16 16:56N 34°35' E 135°25'0 0.0
2017-Nov-16 16:26N 34°35' E 135°25'0 0.0
2017-Nov-16 15:56N 34°35' E 135°25'27 8.1
2017-Nov-16 12:33N 34°15' E 135°03'16 0.5
2017-Nov-15 06:49N 34°29' E 135°13'4 8.8
2017-Nov-15 06:24N 34°31' E 135°16'3 8.5
2017-Nov-15 06:00N 34°33' E 135°20'5 1.4
2017-Nov-15 02:14N 34°35' E 135°25'3 9.7
2017-Nov-15 01:57N 34°36' E 135°22'510.6
2017-Nov-15 01:30N 34°36' E 135°17'510.3
2017-Nov-15 00:59N 34°36' E 135°10'  
2017-Nov-12 03:06N 34°36' E 135°03'1 8.5
2017-Nov-12 02:59N 34°36' E 135°04'4 8.7
2017-Nov-12 02:30N 34°36' E 135°10'4 8.8
2017-Nov-12 02:00N 34°37' E 135°15'5 8.8
2017-Nov-12 01:29N 34°37' E 135°20'5 3.8
2017-Nov-12 00:11N 34°34' E 135°26'0 0.0
2017-Nov-11 22:50N 34°34' E 135°26'0 0.6
2017-Nov-11 22:18N 34°35' E 135°25'1 0.7
2017-Nov-11 21:32N 34°35' E 135°25'0 0.0
2017-Nov-11 21:02N 34°35' E 135°25'0 0.0
2017-Nov-11 20:38N 34°35' E 135°25'0 0.0
2017-Nov-11 20:26N 34°35' E 135°25'6 7.5
2017-Nov-11 19:41N 34°33' E 135°19'3 9.6
2017-Nov-11 19:23N 34°31' E 135°16'  

Dump ship's entire track history